F/V Abraden — FGRQ — position and weather

sailwx.info

Track history (hours):
 
Tides and Currents Weather Stations Pressure Air Temp Water Temp Dewpoint Dewpoint Depression Visibility Wind Speed Wind Dir Waves Ship Positions

F/V Abraden

Last reported at 2017-Nov-18 19:13 UTC. Time now 2017-Nov-22 07:36 UTC.
Position N 47°08' W 003°58'.

Type: Fishing. MMSI: 228226000.

Date/timePositionNaut miles runAvg speedWind from/ knotsBaromVisibWave heightAir tempDewpointWater temp
2017-Nov-18 19:13N 47°08' W 003°58'2 3.2
2017-Nov-18 18:35N 47°10' W 003°57'0 3.2
2017-Nov-18 18:30N 47°10' W 003°57'2 3.6
2017-Nov-18 17:52N 47°12' W 003°57'4 6.9
2017-Nov-18 17:16N 47°16' W 003°57'2 7.9
2017-Nov-18 16:58N 47°19' W 003°56'5 7.6
2017-Nov-18 16:15N 47°24' W 003°56'2 7.5
2017-Nov-18 16:00N 47°26' W 003°55'4 7.6
2017-Nov-18 15:28N 47°30' W 003°54'3 7.5
2017-Nov-18 15:00N 47°34' W 003°54'4 7.4
2017-Nov-18 14:30N 47°37' W 003°54'4 7.3
2017-Nov-18 14:00N 47°41' W 003°54'4 7.1
2017-Nov-18 13:30N 47°44' W 003°55'  
2017-Nov-10 01:53N 47°52' W 003°55'31 1.3
2017-Nov-09 02:56N 47°21' W 003°56'3 7.1
2017-Nov-09 02:29N 47°25' W 003°56'4 7.3
2017-Nov-09 01:55N 47°29' W 003°55'3 7.3
2017-Nov-09 01:29N 47°32' W 003°55'9 7.3
2017-Nov-09 00:14N 47°41' W 003°53'3 7.5
2017-Nov-08 23:53N 47°43' W 003°54'7 7.4
2017-Nov-08 22:53N 47°51' W 003°56'  
Track history (hours):
 
Tides and Currents Weather Stations Pressure Air Temp Water Temp Dewpoint Dewpoint Depression Visibility Wind Speed Wind Dir Waves Ship Positions

F/V Abraden

Last reported at 2017-Nov-18 19:13 UTC. Time now 2017-Nov-22 07:36 UTC.
Position N 47°08' W 003°58'.

Type: Fishing. MMSI: 228226000.

Date/timePositionNaut miles runAvg speedWind from/ knotsBaromVisibWave heightAir tempDewpointWater temp
2017-Nov-18 19:13N 47°08' W 003°58'2 3.2
2017-Nov-18 18:35N 47°10' W 003°57'0 3.2
2017-Nov-18 18:30N 47°10' W 003°57'2 3.6
2017-Nov-18 17:52N 47°12' W 003°57'4 6.9
2017-Nov-18 17:16N 47°16' W 003°57'2 7.9
2017-Nov-18 16:58N 47°19' W 003°56'5 7.6
2017-Nov-18 16:15N 47°24' W 003°56'2 7.5
2017-Nov-18 16:00N 47°26' W 003°55'4 7.6
2017-Nov-18 15:28N 47°30' W 003°54'3 7.5
2017-Nov-18 15:00N 47°34' W 003°54'4 7.4
2017-Nov-18 14:30N 47°37' W 003°54'4 7.3
2017-Nov-18 14:00N 47°41' W 003°54'4 7.1
2017-Nov-18 13:30N 47°44' W 003°55'  
2017-Nov-10 01:53N 47°52' W 003°55'31 1.3
2017-Nov-09 02:56N 47°21' W 003°56'3 7.1
2017-Nov-09 02:29N 47°25' W 003°56'4 7.3
2017-Nov-09 01:55N 47°29' W 003°55'3 7.3
2017-Nov-09 01:29N 47°32' W 003°55'9 7.3
2017-Nov-09 00:14N 47°41' W 003°53'3 7.5
2017-Nov-08 23:53N 47°43' W 003°54'7 7.4
2017-Nov-08 22:53N 47°51' W 003°56'  

Dump ship's entire track history